Metar/Speci

METEOROLOGICAL AERODROME REPORT
STASIUN METEOROLOGI HANG NADIM BATAM

ADDS - METARS form results

(0544 UTC 25 January 2020)
Data provider http://aviationweather.gov/metar/data/
 
METAR text: WIDD 250500Z 05013KT 9999 FEW014 30/23 Q1014 NOSIG
Conditions at: WIDD (HANG NADIM , ID) observed 0500 UTC 25 January 2020
Temperature: 30.0°C (86°F)
Dewpoint: 23.0°C (73°F) [RH = 66%]
Pressure (altimeter): 29.94 inches Hg (1014.0 mb)
Winds: from the NE (50 degrees) at 15 MPH (13 knots; 6.7 m/s)
Visibility: 6 or more miles (10+ km)
Ceiling: at least 12,000 feet AGL
Clouds: few clouds at 1400 feet AGL
Weather: no significant weather observed at this time

Forecast for: WIDD (HANG NADIM , ID)
Text: TAF WIDD 250500Z 2506/2606 04013KT 9999 SCT014
Forecast period: 0600 UTC 25 January 2020 to 0600 UTC 26 January 2020
Forecast type: FROM: standard forecast or significant change
Winds: from the NE (40 degrees) at 15 MPH (13 knots; 6.7 m/s)
Visibility: 6 or more miles 10+ km)
Ceiling: at least 12,000 feet AGL
Clouds: scattered clouds at 1400 feet AGL
Weather: no significant weather forecast for this period

Informasi METAR/SPECI dapat diakses juga di http://aviation.bmkg.go.id